Time;durP1;ratioP1;P1;durP2;ratioP2;P2;SDS_P1;SDS_P2;PMS_P1;PMS_P2;Temp;Humidity;BMP_temperature;BMP_pressure;BME280_temperature;BME280_humidity;BME280_pressure;Samples;Min_cycle;Max_cycle;Signal;HPM_P1;HPM_P2
2021/12/29 00:02:19;;;;;;;4.22;2.42;;;;;;;9.24;98.68;99797.09;5014605;28;20084;-72
2021/12/29 00:05:00;;;;;;;4.22;1.52;;;;;;;9.27;98.86;99812.56;5008293;28;20076;-73
2021/12/29 00:07:42;;;;;;;5.32;2.92;;;;;;;9.24;99.55;99825.91;5016797;28;20081;-73
2021/12/29 00:10:14;;;;;;;10.40;3.53;;;;;;;9.22;99.72;99822.63;5016297;28;20064;-73
2021/12/29 00:12:46;;;;;;;5.70;2.67;;;;;;;9.21;99.64;99831.44;5010682;28;20048;-73
2021/12/29 00:15:25;;;;;;;6.53;2.30;;;;;;;9.23;100.00;99834.78;5012853;28;20050;-72
2021/12/29 00:18:09;;;;;;;3.60;2.63;;;;;;;9.20;99.15;99835.03;5005255;28;20045;-73
2021/12/29 00:20:37;;;;;;;3.95;2.55;;;;;;;9.17;99.32;99833.50;5009817;28;20044;-74
2021/12/29 00:23:14;;;;;;;2.33;1.05;;;;;;;9.20;99.26;99838.47;5018639;28;20042;-74
2021/12/29 00:25:52;;;;;;;4.30;2.58;;;;;;;9.24;99.19;99846.88;5012532;28;20049;-72
2021/12/29 00:28:20;;;;;;;7.13;2.45;;;;;;;9.20;100.00;99858.63;5010342;28;20054;-73
2021/12/29 00:31:01;;;;;;;5.80;3.72;;;;;;;9.17;100.00;99864.13;5013869;28;20042;-72
2021/12/29 00:33:34;;;;;;;5.43;2.60;;;;;;;9.21;100.00;99882.06;4991728;28;20112;-72
2021/12/29 00:36:07;;;;;;;5.68;2.95;;;;;;;9.19;100.00;99883.16;5006984;28;20136;-73
2021/12/29 00:38:35;;;;;;;3.70;2.75;;;;;;;9.21;100.00;99896.97;5011827;28;20132;-73
2021/12/29 00:41:13;;;;;;;8.48;2.97;;;;;;;9.19;100.00;99901.50;5015833;28;20038;-73
2021/12/29 00:43:58;;;;;;;4.22;2.63;;;;;;;9.23;100.00;99916.00;5007061;28;20555;-72
2021/12/29 00:46:25;;;;;;;7.65;2.03;;;;;;;9.21;100.00;99910.88;5013338;28;20050;-73
2021/12/29 00:49:10;;;;;;;6.70;3.95;;;;;;;9.21;100.00;99918.75;5007843;28;20060;-74
2021/12/29 00:51:59;;;;;;;12.02;3.92;;;;;;;9.23;100.00;99922.06;5006575;28;20053;-73
2021/12/29 00:54:34;;;;;;;7.10;3.83;;;;;;;9.25;100.00;99935.03;4999103;28;20050;-73
2021/12/29 00:57:01;;;;;;;9.10;4.65;;;;;;;9.23;99.99;99942.22;5019982;28;20050;-72
2021/12/29 00:59:28;;;;;;;7.53;3.25;;;;;;;9.23;100.00;99942.22;5019670;28;20148;-73
2021/12/29 01:02:07;;;;;;;8.27;3.90;;;;;;;9.21;100.00;99952.81;5016271;28;20045;-73
2021/12/29 01:04:40;;;;;;;8.80;4.72;;;;;;;9.19;100.00;99951.28;5013374;28;20038;-73
2021/12/29 01:07:09;;;;;;;5.75;3.67;;;;;;;9.21;100.00;99959.84;5026339;28;20072;-73
2021/12/29 01:09:37;;;;;;;5.22;3.15;;;;;;;9.24;100.00;99964.81;5041919;28;20033;-73
2021/12/29 01:12:15;;;;;;;16.27;4.18;;;;;;;9.24;100.00;99959.56;5019058;28;20523;-73
2021/12/29 01:15:02;;;;;;;5.75;3.00;;;;;;;9.23;99.84;99971.03;5022549;28;20655;-73
2021/12/29 01:17:31;;;;;;;7.55;2.97;;;;;;;9.24;100.00;99980.53;5012854;28;20079;-75
2021/12/29 01:20:02;;;;;;;4.75;3.03;;;;;;;9.20;100.00;99984.41;5000120;28;20049;-73
2021/12/29 01:22:30;;;;;;;8.02;2.28;;;;;;;9.18;100.00;99986.31;4999950;28;20128;-72
2021/12/29 01:25:08;;;;;;;2.25;1.23;;;;;;;9.15;99.55;99981.34;5019975;28;20127;-73
2021/12/29 01:27:38;;;;;;;10.97;2.10;;;;;;;9.17;100.00;99995.97;5021620;28;20054;-72
2021/12/29 01:30:09;;;;;;;3.92;1.98;;;;;;;9.18;100.00;99996.78;5011830;28;20061;-73
2021/12/29 01:32:37;;;;;;;;;;;;;;;9.16;100.00;100003.94;5005532;28;20080;-74
2021/12/29 01:35:11;;;;;;;1.67;1.17;;;;;;;9.16;100.00;100011.81;5009406;28;19976;-73
2021/12/29 01:37:40;;;;;;;3.60;1.77;;;;;;;9.18;99.43;100023.84;5020963;28;20129;-73
2021/12/29 01:40:10;;;;;;;2.08;1.60;;;;;;;9.19;100.00;100027.28;5012269;28;20037;-73
2021/12/29 01:42:39;;;;;;;4.53;2.65;;;;;;;9.16;99.83;100027.53;5022320;28;20054;-74
2021/12/29 01:45:07;;;;;;;2.83;1.60;;;;;;;9.20;100.00;100037.63;5012313;28;20129;-74
2021/12/29 01:47:36;;;;;;;5.72;2.42;;;;;;;9.18;100.00;100051.81;5023366;28;20501;-74
2021/12/29 01:50:11;;;;;;;4.63;2.85;;;;;;;9.16;100.00;100056.34;5015000;28;20064;-72
2021/12/29 01:52:53;;;;;;;3.95;2.70;;;;;;;9.19;100.00;100056.91;5010480;28;20045;-73
2021/12/29 01:55:25;;;;;;;3.50;2.75;;;;;;;9.18;100.00;100060.53;5014844;28;20049;-74
2021/12/29 01:58:04;;;;;;;5.93;3.25;;;;;;;9.14;100.00;100058.28;5003383;28;20112;-73
2021/12/29 02:00:36;;;;;;;5.40;2.50;;;;;;;9.19;100.00;100074.44;5014720;28;20041;-73
2021/12/29 02:03:03;;;;;;;4.45;2.45;;;;;;;9.16;100.00;100066.81;5003616;28;20123;-74
2021/12/29 02:05:41;;;;;;;3.10;1.98;;;;;;;9.14;100.00;100063.53;5011575;28;20124;-74
2021/12/29 02:08:25;;;;;;;4.68;2.03;;;;;;;9.18;100.00;100072.78;5006287;28;20060;-72
2021/12/29 02:11:06;;;;;;;13.23;2.17;;;;;;;9.16;100.00;100067.69;5011769;28;20128;-73
2021/12/29 02:13:33;;;;;;;2.78;1.80;;;;;;;9.18;100.00;100070.16;5011468;28;20053;-73
2021/12/29 02:16:00;;;;;;;3.08;1.90;;;;;;;9.16;99.74;100069.44;5012131;28;20503;-73
2021/12/29 02:18:37;;;;;;;4.05;1.80;;;;;;;9.15;100.00;100075.69;4998348;28;20057;-74
2021/12/29 02:21:08;;;;;;;4.10;2.28;;;;;;;9.12;100.00;100076.72;4995474;28;20048;-74
2021/12/29 02:23:46;;;;;;;5.35;2.75;;;;;;;9.18;100.00;100085.88;5007848;28;20497;-73
2021/12/29 02:26:17;;;;;;;2.45;1.67;;;;;;;9.18;100.00;100093.75;5011716;28;20153;-72
2021/12/29 02:28:45;;;;;;;4.18;2.70;;;;;;;9.17;99.54;100111.25;5017923;28;20512;-72
2021/12/29 02:31:18;;;;;;;3.85;2.50;;;;;;;9.19;99.81;100111.94;5011016;28;20038;-72
2021/12/29 02:33:44;;;;;;;3.95;3.30;;;;;;;9.19;99.97;100104.09;5009675;28;20046;-73
2021/12/29 02:36:16;;;;;;;4.57;2.65;;;;;;;9.21;99.32;100107.41;5011990;28;20546;-74
2021/12/29 02:38:48;;;;;;;3.75;2.55;;;;;;;9.22;100.00;100108.25;5007096;28;20375;-72
2021/12/29 02:41:15;;;;;;;4.28;3.15;;;;;;;9.20;99.62;100116.22;5015110;28;20053;-72
2021/12/29 02:44:01;;;;;;;5.65;3.58;;;;;;;9.20;99.36;100104.94;5014653;28;20064;-73
2021/12/29 02:46:32;;;;;;;6.00;2.97;;;;;;;9.15;99.82;100112.34;5021545;28;20103;-73
2021/12/29 02:49:04;;;;;;;6.13;3.03;;;;;;;9.16;100.00;100121.84;4998105;28;20448;-72
2021/12/29 02:51:33;;;;;;;9.38;3.25;;;;;;;9.13;99.77;100122.13;5023061;28;20125;-74
2021/12/29 02:54:12;;;;;;;6.57;4.57;;;;;;;9.13;99.26;100120.31;5019298;28;20050;-74
2021/12/29 02:56:39;;;;;;;2.00;1.60;;;;;;;9.18;100.00;100133.03;5018289;28;20038;-73
2021/12/29 02:59:06;;;;;;;6.03;4.35;;;;;;;9.12;100.00;100130.94;5018779;28;20073;-73
2021/12/29 03:01:34;;;;;;;3.47;2.58;;;;;;;9.11;100.00;100131.91;5003677;28;20532;-72
2021/12/29 03:04:11;;;;;;;4.93;3.30;;;;;;;9.11;100.00;100132.72;5025637;28;20065;-72
2021/12/29 03:06:45;;;;;;;8.27;4.63;;;;;;;9.09;100.00;100128.56;5038192;28;20692;-72
2021/12/29 03:09:16;;;;;;;16.75;6.00;;;;;;;9.11;100.00;100142.38;5038477;28;20093;-72
2021/12/29 03:11:43;;;;;;;7.32;4.15;;;;;;;9.11;100.00;100145.00;5031925;28;20050;-72
2021/12/29 03:14:10;;;;;;;7.68;4.53;;;;;;;9.07;99.43;100151.47;5018680;28;20039;-72
2021/12/29 03:16:50;;;;;;;7.30;3.80;;;;;;;9.09;99.63;100158.22;5016682;28;20049;-74
2021/12/29 03:19:23;;;;;;;6.22;4.30;;;;;;;9.09;99.98;100154.75;4997031;28;20695;-72
2021/12/29 03:21:58;;;;;;;7.35;5.05;;;;;;;9.07;100.00;100151.47;5015072;28;20053;-73
2021/12/29 03:24:24;;;;;;;9.25;4.90;;;;;;;9.02;100.00;100156.22;5015416;28;20076;-73
2021/12/29 03:26:53;;;;;;;7.72;3.70;;;;;;;9.07;100.00;100164.56;5012422;28;20935;-73
2021/12/29 03:29:24;;;;;;;16.13;5.78;;;;;;;9.08;100.00;100176.69;5010045;28;20056;-74
2021/12/29 03:32:06;;;;;;;6.15;4.47;;;;;;;9.05;100.00;100187.44;5010748;28;20908;-71
2021/12/29 03:34:32;;;;;;;11.73;5.90;;;;;;;9.05;100.00;100184.81;5013458;28;20681;-73
2021/12/29 03:37:07;;;;;;;6.80;4.57;;;;;;;9.01;100.00;100172.91;4996144;28;20042;-72
2021/12/29 03:39:41;;;;;;;6.22;4.82;;;;;;;9.03;100.00;100191.94;5009398;28;20057;-74
2021/12/29 03:42:15;;;;;;;5.20;3.45;;;;;;;9.05;100.00;100192.66;5013264;28;20130;-73
2021/12/29 03:44:41;;;;;;;9.48;5.15;;;;;;;9.03;100.00;100195.38;4986627;28;20056;-73
2021/12/29 03:47:11;;;;;;;9.80;5.15;;;;;;;9.03;100.00;100200.63;4999259;28;20045;-72
2021/12/29 03:49:41;;;;;;;9.38;5.50;;;;;;;9.00;100.00;100202.66;5024904;28;20460;-73
2021/12/29 03:52:09;;;;;;;7.57;5.47;;;;;;;9.02;100.00;100203.38;5018528;28;20069;-72
2021/12/29 03:54:39;;;;;;;11.32;5.50;;;;;;;8.98;100.00;100204.59;5015949;28;20127;-74
2021/12/29 03:57:05;;;;;;;14.65;5.80;;;;;;;9.02;100.00;100213.88;5018334;28;20033;-72
2021/12/29 03:59:32;;;;;;;8.30;5.30;;;;;;;8.98;100.00;100215.09;5017693;28;20052;-72
2021/12/29 04:02:11;;;;;;;11.27;5.82;;;;;;;8.97;99.87;100218.66;5018738;28;20132;-72
2021/12/29 04:04:39;;;;;;;7.40;4.80;;;;;;;8.95;100.00;100220.56;5027200;28;20045;-72
2021/12/29 04:07:25;;;;;;;9.50;3.83;;;;;;;8.98;100.00;100228.19;5021406;28;20483;-73
2021/12/29 04:09:52;;;;;;;11.10;6.28;;;;;;;8.96;100.00;100232.69;5007157;28;20048;-74
2021/12/29 04:12:24;;;;;;;12.07;5.32;;;;;;;8.94;100.00;100239.84;5014925;28;20045;-73
2021/12/29 04:14:51;;;;;;;10.20;5.43;;;;;;;8.93;100.00;100238.19;5006954;28;20046;-73
2021/12/29 04:17:24;;;;;;;6.85;4.78;;;;;;;8.90;100.00;100230.59;5010600;28;20045;-73
2021/12/29 04:22:37;;;;;;;16.25;6.93;;;;;;;8.89;100.00;100242.00;5017028;28;20041;-74
2021/12/29 04:25:11;;;;;;;12.88;6.68;;;;;;;8.91;100.00;100234.84;5003545;28;20485;-73
2021/12/29 04:27:38;;;;;;;9.98;6.15;;;;;;;8.93;100.00;100248.66;5016156;28;20051;-73
2021/12/29 04:30:17;;;;;;;8.55;5.68;;;;;;;8.93;100.00;100259.13;5000257;28;20053;-73
2021/12/29 04:32:44;;;;;;;16.73;7.05;;;;;;;8.90;99.93;100260.22;5015905;28;20055;-72
2021/12/29 04:35:24;;;;;;;16.92;6.70;;;;;;;8.89;100.00;100266.41;5003712;28;20488;-73
2021/12/29 04:38:01;;;;;;;6.15;4.93;;;;;;;8.87;100.00;100264.88;5023466;28;20051;-72
2021/12/29 04:40:28;;;;;;;8.48;5.43;;;;;;;8.88;100.00;100263.91;5014566;28;20503;-74
2021/12/29 04:43:06;;;;;;;11.30;6.32;;;;;;;8.85;100.00;100266.78;5017654;28;20046;-73
2021/12/29 04:45:53;;;;;;;13.48;7.97;;;;;;;8.84;100.00;100270.34;5008468;28;20056;-74
2021/12/29 04:48:38;;;;;;;12.73;7.78;;;;;;;8.87;100.00;100273.53;5013283;28;20468;-72
2021/12/29 04:51:16;;;;;;;12.13;7.43;;;;;;;8.83;100.00;100280.00;5016909;28;20555;-73
2021/12/29 04:53:48;;;;;;;12.43;7.07;;;;;;;8.87;100.00;100283.19;5028703;28;20115;-73
2021/12/29 04:56:24;;;;;;;13.05;6.82;;;;;;;8.85;100.00;100277.25;5011584;28;20660;-72
2021/12/29 04:58:50;;;;;;;8.35;5.47;;;;;;;8.82;100.00;100282.75;5016546;28;20487;-74
2021/12/29 05:01:18;;;;;;;18.33;8.05;;;;;;;8.82;100.00;100293.22;5012939;28;20042;-73
2021/12/29 05:03:58;;;;;;;18.10;8.82;;;;;;;8.77;100.00;100290.97;5032284;28;20041;-73
2021/12/29 05:09:12;;;;;;;24.60;7.60;;;;;;;8.80;100.00;100311.66;5034150;28;20040;-72
2021/12/29 05:11:40;;;;;;;13.38;7.63;;;;;;;8.83;100.00;100315.81;5026458;28;20052;-72
2021/12/29 05:14:24;;;;;;;14.27;7.40;;;;;;;8.83;100.00;100321.06;5021612;28;20103;-73
2021/12/29 05:16:53;;;;;;;12.57;7.13;;;;;;;8.81;100.00;100323.81;5010516;28;20077;-72
2021/12/29 05:19:24;;;;;;;8.27;5.70;;;;;;;8.84;100.00;100317.47;5010529;28;20054;-73
2021/12/29 05:21:52;;;;;;;12.95;8.63;;;;;;;8.84;100.00;100312.25;4983700;28;20136;-72
2021/12/29 05:24:20;;;;;;;17.15;8.52;;;;;;;8.80;100.00;100324.75;5013960;28;20049;-74
2021/12/29 05:27:04;;;;;;;23.23;8.80;;;;;;;8.81;100.00;100325.59;5001521;28;20165;-74
2021/12/29 05:29:41;;;;;;;18.92;9.07;;;;;;;8.80;100.00;100321.31;5011018;28;20060;-73
2021/12/29 05:32:11;;;;;;;12.02;6.32;;;;;;;8.82;100.00;100327.28;5003734;28;20041;-74
2021/12/29 05:34:56;;;;;;;17.17;7.75;;;;;;;8.79;100.00;100324.88;5013997;28;20048;-72
2021/12/29 05:37:24;;;;;;;16.23;7.72;;;;;;;8.79;100.00;100330.13;5005323;28;20049;-73
2021/12/29 05:39:52;;;;;;;14.85;6.78;;;;;;;8.78;100.00;100325.81;5007446;28;20124;-73
2021/12/29 05:42:19;;;;;;;15.07;7.30;;;;;;;8.81;100.00;100325.59;5006412;28;20068;-72
2021/12/29 05:44:50;;;;;;;13.73;7.77;;;;;;;8.78;100.00;100321.41;5010515;28;20044;-74
2021/12/29 05:47:17;;;;;;;11.18;6.00;;;;;;;8.79;100.00;100323.06;4992375;28;21052;-73
2021/12/29 05:49:51;;;;;;;18.77;7.82;;;;;;;8.80;100.00;100321.31;5008135;28;20046;-74
2021/12/29 05:52:24;;;;;;;17.13;8.10;;;;;;;8.79;100.00;100330.13;5027007;28;20045;-72
2021/12/29 05:55:00;;;;;;;16.13;7.70;;;;;;;8.80;100.00;100329.16;5009601;28;20034;-71
2021/12/29 05:57:28;;;;;;;17.92;8.05;;;;;;;8.79;100.00;100341.41;5011297;28;20385;-73
2021/12/29 05:59:55;;;;;;;15.93;8.10;;;;;;;8.80;100.00;100345.69;5003560;28;20124;-72
2021/12/29 06:02:24;;;;;;;6.50;4.53;;;;;;;8.82;100.00;100342.97;5015165;28;20049;-72
2021/12/29 06:05:00;;;;;;;12.23;5.85;;;;;;;8.73;100.00;100332.38;5017812;28;20042;-72
2021/12/29 06:07:28;;;;;;;11.93;6.25;;;;;;;8.79;100.00;100343.22;5026510;28;20041;-73
2021/12/29 06:10:13;;;;;;;16.85;8.35;;;;;;;8.77;100.00;100341.66;5035979;28;20053;-73
2021/12/29 06:12:46;;;;;;;17.65;8.35;;;;;;;8.75;100.00;100339.16;5046934;28;20045;-73
2021/12/29 06:15:15;;;;;;;14.00;7.55;;;;;;;8.77;100.00;100347.72;5018490;28;20050;-73
2021/12/29 06:17:41;;;;;;;22.55;9.73;;;;;;;8.72;100.00;100343.78;5017158;28;20046;-74
2021/12/29 06:20:13;;;;;;;19.45;8.75;;;;;;;8.76;100.00;100351.28;5020152;28;20657;-73
2021/12/29 06:22:46;;;;;;;14.95;8.45;;;;;;;8.75;100.00;100348.81;4997427;28;20053;-74
2021/12/29 06:25:16;;;;;;;15.60;8.43;;;;;;;8.70;100.00;100364.06;5024929;28;20125;-73
2021/12/29 06:27:56;;;;;;;19.75;7.93;;;;;;;8.76;100.00;100366.19;5016064;28;20163;-73
2021/12/29 06:30:24;;;;;;;16.33;7.28;;;;;;;8.74;100.00;100368.91;5006791;28;20050;-72
2021/12/29 06:32:51;;;;;;;13.57;7.82;;;;;;;8.77;100.00;100371.28;5018663;28;20051;-73
2021/12/29 06:35:20;;;;;;;7.50;5.00;;;;;;;8.78;100.00;100381.66;5027039;28;20072;-72
2021/12/29 06:37:47;;;;;;;19.40;7.95;;;;;;;8.76;100.00;100393.19;5027700;28;20041;-73
2021/12/29 06:40:26;;;;;;;16.52;7.68;;;;;;;8.74;99.91;100395.09;5018089;28;20069;-73
2021/12/29 06:42:55;;;;;;;16.42;7.05;;;;;;;8.75;100.00;100399.38;5004212;28;20787;-73
2021/12/29 06:45:24;;;;;;;13.85;8.32;;;;;;;8.76;100.00;100408.91;5025875;28;20051;-72
2021/12/29 06:47:53;;;;;;;13.30;7.10;;;;;;;8.79;100.00;100416.53;5015108;28;20490;-71
2021/12/29 06:50:21;;;;;;;20.27;8.77;;;;;;;8.78;100.00;100413.06;5005282;28;20049;-72
2021/12/29 06:52:48;;;;;;;19.15;8.45;;;;;;;8.76;100.00;100408.91;5019329;28;20029;-73
2021/12/29 06:55:26;;;;;;;23.88;9.93;;;;;;;8.79;100.00;100413.91;5014739;28;20120;-75
2021/12/29 06:58:00;;;;;;;23.67;7.18;;;;;;;8.77;100.00;100408.81;5015182;28;20629;-72
2021/12/29 07:00:33;;;;;;;20.05;8.57;;;;;;;8.74;99.59;100404.75;5026743;28;20065;-73
2021/12/29 07:03:03;;;;;;;22.20;8.43;;;;;;;8.77;100.00;100407.13;5015643;28;20057;-70
2021/12/29 07:05:30;;;;;;;23.35;8.05;;;;;;;8.77;100.00;100418.44;5036375;28;20038;-73
2021/12/29 07:07:57;;;;;;;20.83;6.00;;;;;;;8.78;99.39;100422.72;5035776;28;20144;-73
2021/12/29 07:10:26;;;;;;;29.98;8.93;;;;;;;8.75;100.00;100422.94;5021213;28;20073;-73
2021/12/29 07:13:08;;;;;;;12.30;7.65;;;;;;;8.77;99.39;100426.28;5025878;28;20045;-72
2021/12/29 07:15:34;;;;;;;14.10;7.40;;;;;;;8.75;99.30;100427.38;5004439;28;20069;-73
2021/12/29 07:18:08;;;;;;;10.82;6.18;;;;;;;8.79;99.96;100430.47;5017657;28;20076;-72
2021/12/29 07:20:47;;;;;;;15.88;6.85;;;;;;;8.79;99.94;100432.25;5022010;28;20055;-73
2021/12/29 07:23:24;;;;;;;12.35;6.68;;;;;;;8.74;99.89;100426.50;5015068;28;20056;-72
2021/12/29 07:25:52;;;;;;;16.65;6.95;;;;;;;8.72;99.52;100428.44;5012372;28;20042;-72
2021/12/29 07:28:18;;;;;;;18.30;7.22;;;;;;;8.72;99.61;100432.81;5009260;28;20049;-75
2021/12/29 07:30:47;;;;;;;22.05;6.75;;;;;;;8.76;99.65;100440.34;5013688;28;20042;-71
2021/12/29 07:33:15;;;;;;;11.60;6.47;;;;;;;8.77;100.00;100449.88;5005655;28;20065;-73
2021/12/29 07:35:53;;;;;;;25.83;6.45;;;;;;;8.76;99.01;100455.22;5015186;28;20199;-72
2021/12/29 07:38:20;;;;;;;13.15;5.72;;;;;;;8.74;99.68;100452.72;5014227;28;20045;-73
2021/12/29 07:40:53;;;;;;;;;;;;;;;8.73;99.95;100458.06;5017049;28;20621;-73
2021/12/29 07:43:24;;;;;;;15.93;5.97;;;;;;;8.71;99.23;100463.44;5015011;28;19929;-72
2021/12/29 07:45:54;;;;;;;19.92;6.40;;;;;;;8.68;99.66;100465.44;5016333;28;20039;-71
2021/12/29 07:48:26;;;;;;;13.20;5.32;;;;;;;8.69;99.82;100469.75;5007605;28;20041;-73
2021/12/29 07:50:52;;;;;;;22.58;6.03;;;;;;;8.68;99.59;100471.50;5014363;28;20049;-72
2021/12/29 07:53:24;;;;;;;10.32;6.38;;;;;;;8.64;99.58;100477.94;4998989;28;20385;-73
2021/12/29 07:55:55;;;;;;;11.45;6.22;;;;;;;8.68;99.82;100479.38;5010556;28;20053;-73
2021/12/29 07:58:25;;;;;;;8.15;5.13;;;;;;;8.70;99.40;100487.13;5008111;28;20049;-76
2021/12/29 08:00:52;;;;;;;16.00;6.75;;;;;;;8.65;99.28;100489.22;5011500;28;20072;-74
2021/12/29 08:03:22;;;;;;;15.05;6.28;;;;;;;8.66;99.83;100494.34;5016851;28;20049;-73
2021/12/29 08:05:48;;;;;;;12.32;5.50;;;;;;;8.72;99.48;100499.16;5012770;28;20053;-73
2021/12/29 08:08:19;;;;;;;11.30;6.18;;;;;;;8.73;98.47;100487.72;5016007;28;20496;-73
2021/12/29 08:10:47;;;;;;;11.88;5.45;;;;;;;8.74;98.29;100484.13;5015044;28;20583;-72
2021/12/29 08:13:15;;;;;;;13.82;5.15;;;;;;;8.74;98.17;100484.13;5015926;28;20049;-73
2021/12/29 08:15:41;;;;;;;11.23;5.05;;;;;;;8.76;99.15;100487.47;5014622;28;20059;-76
2021/12/29 08:18:11;;;;;;;14.38;4.90;;;;;;;8.77;98.03;100492.63;5001652;28;20479;-74
2021/12/29 08:20:43;;;;;;;12.30;5.60;;;;;;;8.77;98.23;100485.72;5013712;28;20547;-72
2021/12/29 08:23:11;;;;;;;11.82;6.07;;;;;;;8.77;98.61;100483.09;5015363;28;20053;-74
2021/12/29 08:25:39;;;;;;;10.75;6.18;;;;;;;8.79;97.90;100488.06;5008387;28;20073;-73
2021/12/29 08:28:07;;;;;;;14.70;5.80;;;;;;;8.84;97.66;100490.34;5015759;28;20394;-74
2021/12/29 08:30:35;;;;;;;12.23;5.38;;;;;;;8.90;97.86;100498.59;5016788;28;20109;-72
2021/12/29 08:33:03;;;;;;;18.13;6.70;;;;;;;8.85;98.34;100497.25;5012072;28;20045;-76
2021/12/29 08:35:30;;;;;;;11.13;6.03;;;;;;;8.85;97.57;100494.63;5013137;28;20049;-73
2021/12/29 08:37:58;;;;;;;12.05;5.95;;;;;;;8.88;97.89;100499.66;5001108;28;20053;-74
2021/12/29 08:40:26;;;;;;;12.93;6.18;;;;;;;8.89;98.22;100496.09;5012028;28;20053;-73
2021/12/29 08:42:57;;;;;;;33.22;6.55;;;;;;;8.87;97.83;100498.81;5013309;28;20049;-73
2021/12/29 08:45:24;;;;;;;24.23;5.68;;;;;;;8.87;97.20;100488.31;5001528;28;20080;-73
2021/12/29 08:47:55;;;;;;;18.58;6.38;;;;;;;8.87;97.88;100493.56;5022701;28;20033;-74
2021/12/29 08:50:23;;;;;;;16.08;6.40;;;;;;;8.88;97.36;100491.81;5000930;28;20119;-73
2021/12/29 08:52:52;;;;;;;13.63;6.90;;;;;;;8.90;97.45;100489.91;5027068;28;20543;-73
2021/12/29 08:55:19;;;;;;;12.40;5.40;;;;;;;8.93;97.58;100492.28;5019389;28;20053;-72
2021/12/29 08:57:47;;;;;;;9.40;5.05;;;;;;;8.97;96.56;100491.09;5024433;28;20038;-72
2021/12/29 09:00:21;;;;;;;14.77;6.15;;;;;;;8.97;96.93;100496.34;5023024;28;20056;-72
2021/12/29 09:03:07;;;;;;;11.75;5.75;;;;;;;8.99;96.51;100502.28;5036598;28;20022;-71
2021/12/29 09:05:34;;;;;;;14.13;5.63;;;;;;;9.01;97.19;100503.84;5034827;28;20060;-74
2021/12/29 09:08:04;;;;;;;13.43;5.78;;;;;;;9.04;95.88;100506.22;5016690;28;20063;-72
2021/12/29 09:10:45;;;;;;;14.38;6.07;;;;;;;9.07;96.52;100502.56;5025804;28;20045;-74
2021/12/29 09:13:21;;;;;;;8.43;5.88;;;;;;;9.09;96.61;100492.75;5029385;28;20259;-74
2021/12/29 09:15:56;;;;;;;14.23;5.80;;;;;;;9.15;95.53;100492.31;5024677;28;20049;-75
2021/12/29 09:18:25;;;;;;;11.05;5.93;;;;;;;9.25;95.67;100494.09;5026031;28;20104;-74
2021/12/29 09:20:53;;;;;;;8.45;5.22;;;;;;;9.35;95.09;100507.31;4993465;28;20075;-72
2021/12/29 09:23:24;;;;;;;9.90;5.63;;;;;;;9.38;95.19;100499.22;4996325;28;20046;-72
2021/12/29 09:25:52;;;;;;;18.00;6.32;;;;;;;9.39;94.10;100498.28;4995076;28;20402;-73
2021/12/29 09:28:24;;;;;;;12.25;6.60;;;;;;;9.46;94.84;100504.69;5004082;28;20060;-74
2021/12/29 09:30:51;;;;;;;15.82;5.15;;;;;;;9.53;93.83;100508.50;5017709;28;20041;-74
2021/12/29 09:33:25;;;;;;;22.10;6.68;;;;;;;9.56;93.24;100496.81;5009128;28;20507;-73
2021/12/29 09:36:02;;;;;;;8.63;5.68;;;;;;;9.62;92.86;100491.09;5011799;28;20068;-73
2021/12/29 09:38:35;;;;;;;11.32;5.72;;;;;;;9.70;91.89;100499.19;5012170;28;20038;-73
2021/12/29 09:41:13;;;;;;;16.00;6.57;;;;;;;9.76;93.26;100495.25;5009846;28;20048;-73
2021/12/29 09:43:46;;;;;;;13.02;5.03;;;;;;;9.82;92.66;100513.94;5021430;28;20041;-76
2021/12/29 09:46:13;;;;;;;10.35;6.88;;;;;;;9.90;92.54;100501.03;5014185;28;20124;-76
2021/12/29 09:48:47;;;;;;;10.52;6.30;;;;;;;9.87;91.86;100506.56;4997295;28;20042;-73
2021/12/29 09:51:15;;;;;;;9.07;5.50;;;;;;;9.88;92.23;100486.41;5010722;28;20103;-75
2021/12/29 09:53:43;;;;;;;14.45;5.57;;;;;;;9.85;91.90;100492.72;5019585;28;20049;-74
2021/12/29 09:56:10;;;;;;;14.80;6.55;;;;;;;9.81;91.55;100488.66;5018705;28;20148;-75
2021/12/29 09:58:39;;;;;;;15.88;5.53;;;;;;;9.75;93.17;100483.91;5012220;28;20488;-74
2021/12/29 10:01:16;;;;;;;15.02;4.45;;;;;;;9.75;92.06;100483.91;5004730;28;20171;-74
2021/12/29 10:03:44;;;;;;;9.18;5.10;;;;;;;9.74;91.73;100497.16;5020153;28;20048;-73
2021/12/29 10:06:14;;;;;;;7.47;4.68;;;;;;;9.63;92.33;100503.25;5017972;28;20523;-72
2021/12/29 10:08:42;;;;;;;6.43;4.05;;;;;;;9.58;92.97;100492.28;5019585;28;20063;-73
2021/12/29 10:11:12;;;;;;;6.97;3.80;;;;;;;9.54;92.70;100486.56;5010324;28;20030;-74
2021/12/29 10:13:51;;;;;;;9.73;4.25;;;;;;;9.55;93.17;100489.06;5017934;28;20129;-73
2021/12/29 10:16:21;;;;;;;9.80;5.43;;;;;;;9.50;92.58;100485.13;5007836;28;20048;-73
2021/12/29 10:18:58;;;;;;;12.40;3.70;;;;;;;9.49;93.41;100486.09;5017790;28;20045;-72
2021/12/29 10:21:42;;;;;;;9.20;4.47;;;;;;;9.51;93.85;100486.81;4987063;28;20049;-74
2021/12/29 10:24:22;;;;;;;;;;;;;;;9.62;93.62;100474.50;5018910;28;20053;-75
2021/12/29 10:26:58;;;;;;;11.32;5.13;;;;;;;9.77;93.09;100474.13;5005313;28;19935;-73
2021/12/29 10:29:28;;;;;;;16.80;3.85;;;;;;;9.99;92.09;100474.09;5017445;28;20500;-75
2021/12/29 10:32:07;;;;;;;;;;;;;;;10.44;91.26;100479.06;5016425;28;20480;-73
2021/12/29 10:34:50;;;;;;;4.70;3.00;;;;;;;10.98;89.39;100476.22;5018351;28;20000;-74
2021/12/29 10:37:18;;;;;;;9.15;5.32;;;;;;;11.39;87.57;100472.56;5010674;28;20046;-74
2021/12/29 10:39:46;;;;;;;12.55;5.43;;;;;;;11.63;86.69;100474.91;5002004;28;20567;-74
2021/12/29 10:42:16;;;;;;;17.80;5.53;;;;;;;11.69;85.60;100472.56;5021095;28;20136;-73
2021/12/29 10:44:49;;;;;;;13.25;5.28;;;;;;;11.77;84.64;100464.84;5017469;28;20096;-74
2021/12/29 10:47:26;;;;;;;9.82;5.68;;;;;;;11.73;84.34;100455.53;5011092;28;20045;-74
2021/12/29 10:50:02;;;;;;;21.90;5.35;;;;;;;11.84;84.78;100452.78;5006976;28;20091;-74
2021/12/29 10:52:33;;;;;;;14.02;5.40;;;;;;;11.85;83.84;100451.81;5025740;28;20099;-73
2021/12/29 10:55:11;;;;;;;15.73;4.45;;;;;;;12.02;83.10;100445.88;5014456;28;20042;-72
2021/12/29 10:58:01;;;;;;;9.10;4.13;;;;;;;11.81;83.52;100441.72;5021251;28;20048;-74
2021/12/29 11:00:36;;;;;;;13.43;4.38;;;;;;;11.46;85.09;100463.16;5038202;28;20041;-73
2021/12/29 11:03:11;;;;;;;17.23;4.88;;;;;;;11.15;87.05;100458.06;5038775;28;20063;-73
2021/12/29 11:06:01;;;;;;;6.55;3.78;;;;;;;10.87;87.90;100450.06;5030745;28;20072;-73
2021/12/29 11:08:29;;;;;;;5.25;3.15;;;;;;;10.89;87.32;100463.88;5016245;28;20044;-73
2021/12/29 11:11:09;;;;;;;6.55;3.33;;;;;;;10.80;89.64;100462.00;5011478;28;20168;-73
2021/12/29 11:13:38;;;;;;;9.35;3.35;;;;;;;10.80;88.24;100454.13;5014282;28;20057;-73
2021/12/29 11:16:10;;;;;;;7.07;3.58;;;;;;;10.78;89.46;100449.00;5012096;28;20048;-73
2021/12/29 11:18:52;;;;;;;6.57;3.47;;;;;;;10.82;88.57;100465.34;5015868;28;20045;-73
2021/12/29 11:21:26;;;;;;;6.78;2.95;;;;;;;10.62;88.33;100468.84;5005967;28;20056;-75
2021/12/29 11:24:13;;;;;;;7.13;3.10;;;;;;;10.71;89.83;100465.44;4999617;28;20085;-73
2021/12/29 11:26:40;;;;;;;4.72;2.75;;;;;;;10.61;90.15;100472.44;5025158;28;20046;-73
2021/12/29 11:29:09;;;;;;;8.75;3.78;;;;;;;10.55;90.24;100476.38;5019648;28;20053;-75
2021/12/29 11:31:44;;;;;;;10.10;3.78;;;;;;;10.59;89.76;100476.97;5018522;28;20063;-74
2021/12/29 11:34:27;;;;;;;21.63;3.45;;;;;;;10.56;89.13;100475.44;5016044;28;20077;-73
2021/12/29 11:37:14;;;;;;;8.00;2.42;;;;;;;10.61;89.72;100473.25;5020207;28;20037;-74
2021/12/29 11:39:45;;;;;;;8.23;2.47;;;;;;;10.60;89.51;100461.06;4999702;28;20554;-74
2021/12/29 11:42:24;;;;;;;22.23;3.38;;;;;;;10.59;89.77;100463.81;5025135;28;20050;-73
2021/12/29 11:44:56;;;;;;;5.93;3.10;;;;;;;10.43;89.96;100452.94;5016284;28;20123;-73
2021/12/29 11:47:24;;;;;;;6.55;3.08;;;;;;;10.45;90.12;100448.41;5023080;28;20122;-73
2021/12/29 11:49:54;;;;;;;6.43;2.70;;;;;;;10.46;90.37;100452.69;5029202;28;20085;-76
2021/12/29 11:52:44;;;;;;;12.20;2.42;;;;;;;10.45;90.59;100448.41;5020245;28;20057;-74
2021/12/29 11:55:14;;;;;;;10.02;2.22;;;;;;;10.40;90.43;100443.53;5015923;28;20120;-75
2021/12/29 11:57:41;;;;;;;9.48;3.05;;;;;;;10.38;90.30;100439.38;5018076;28;20052;-73